UPSVAC Airport Information Service

Windsor Locks Bradley International Airport

ICAO: KBDL Country: United States
Latitude: 41.9389 Longitude: -72.6832
Latest Arrival : UPS4149 (KPHL-KBDL) Latest Departure : UPS611 (KBDL-KSDF)


WX CaptureLIVE
Data provided by noaa.gov | Fetched at 10:20:53

METAR : KBDL 270951Z 35005KT 2 1/2SM -SN BR BKN021 OVC032 M02/M04 A2991 RMK AO2 SLP129 P0000 T10221039

TAF : KBDL 270914Z 2709/2812 36006KT 4SM -SN BR OVC015 FM271800 35007KT P6SM OVC025


Runway Data for KBDL
Data provided by openaviationdata.com

Runway ID Mag Var Hdg Length Elevation Surface ILS Freq ILS Id ILS Slope
1 -14 13° 5146 ft 173 ft Asphalt -- -- --
6 -14 58° 9505 ft 173 ft Asphalt 111.1 IBDL 3
15 -14 148° 6844 ft 173 ft Asphalt -- -- --
19 -14 193° 5146 ft 173 ft Asphalt -- -- --
24 -14 238° 9505 ft 173 ft Asphalt 111.1 IMYQ 3
33 -14 328° 6844 ft 173 ft Asphalt 108.55 IIKX 3

Windsor Locks Bradley International Airport, United States
Use only for reference purposes



Not for navigational purposes.